Time;durP1;ratioP1;P1;durP2;ratioP2;P2;SDS_P1;SDS_P2;PMS_P1;PMS_P2;Temp;Humidity;BMP_temperature;BMP_pressure;BME280_temperature;BME280_humidity;BME280_pressure;Samples;Min_cycle;Max_cycle;Signal;HPM_P1;HPM_P2
2020/12/06 00:02:57;;;;;;;11.57;1.98;;;;;;;;;;5112189;28;20028;-75
2020/12/06 00:06:02;;;;;;;11.30;1.88;;;;;;;;;;5112448;28;20054;-74
2020/12/06 00:09:07;;;;;;;14.40;2.03;;;;;;;;;;5112118;28;20040;-74
2020/12/06 00:15:34;;;;;;;16.08;2.22;;;;;;;;;;5112267;28;20047;-76
2020/12/06 00:18:38;;;;;;;10.05;2.00;;;;;;;;;;5112252;28;20047;-76
2020/12/06 00:21:44;;;;;;;7.35;2.10;;;;;;;;;;5111859;28;20486;-76
2020/12/06 00:24:49;;;;;;;10.25;2.75;;;;;;;;;;5112173;28;20043;-76
2020/12/06 00:27:53;;;;;;;9.07;2.33;;;;;;;;;;5111841;28;20059;-76
2020/12/06 00:30:58;;;;;;;9.00;2.13;;;;;;;;;;5112084;28;20364;-76
2020/12/06 00:34:02;;;;;;;8.75;3.17;;;;;;;;;;5111847;28;20035;-75
2020/12/06 00:37:06;;;;;;;16.70;2.58;;;;;;;;;;5111172;28;20360;-76
2020/12/06 00:40:11;;;;;;;14.70;2.08;;;;;;;;;;5111808;28;20044;-76
2020/12/06 00:43:15;;;;;;;16.85;2.28;;;;;;;;;;5110812;28;20035;-74
2020/12/06 00:46:20;;;;;;;12.57;2.17;;;;;;;;;;5111661;28;20044;-75
2020/12/06 00:49:25;;;;;;;7.30;1.60;;;;;;;;;;5110833;28;20062;-73
2020/12/06 00:52:29;;;;;;;13.77;1.98;;;;;;;;;;5111581;28;20376;-76
2020/12/06 00:55:33;;;;;;;10.32;2.13;;;;;;;;;;5110889;28;20040;-75
2020/12/06 00:58:39;;;;;;;9.73;1.90;;;;;;;;;;5110630;28;20366;-76
2020/12/06 01:01:43;;;;;;;8.68;1.90;;;;;;;;;;5111726;28;20036;-75
2020/12/06 01:04:48;;;;;;;14.48;2.08;;;;;;;;;;5111635;28;20035;-77
2020/12/06 01:07:52;;;;;;;12.02;1.85;;;;;;;;;;5111323;28;20048;-77
2020/12/06 01:10:56;;;;;;;10.07;2.10;;;;;;;;;;5111679;28;20032;-76
2020/12/06 01:14:00;;;;;;;15.73;2.03;;;;;;;;;;5111447;28;20361;-76
2020/12/06 01:17:05;;;;;;;9.07;2.00;;;;;;;;;;5110926;28;20027;-76
2020/12/06 01:20:09;;;;;;;10.38;2.30;;;;;;;;;;5111422;28;20035;-74
2020/12/06 01:23:13;;;;;;;17.10;2.80;;;;;;;;;;5111563;28;20046;-74
2020/12/06 01:26:19;;;;;;;9.52;1.90;;;;;;;;;;5111263;28;20048;-75
2020/12/06 01:29:23;;;;;;;12.88;2.15;;;;;;;;;;5111449;28;20039;-75
2020/12/06 01:32:27;;;;;;;11.02;1.77;;;;;;;;;;5111172;28;20483;-75
2020/12/06 01:35:32;;;;;;;17.20;2.38;;;;;;;;;;5111106;28;20416;-75
2020/12/06 01:38:36;;;;;;;12.23;1.92;;;;;;;;;;5111075;28;20037;-76
2020/12/06 01:41:40;;;;;;;10.63;1.95;;;;;;;;;;5111014;28;20043;-75
2020/12/06 01:44:44;;;;;;;11.05;1.88;;;;;;;;;;5111355;28;20036;-75
2020/12/06 01:47:49;;;;;;;10.38;1.77;;;;;;;;;;5110720;28;20043;-76
2020/12/06 01:50:56;;;;;;;12.02;1.80;;;;;;;;;;5110145;28;20392;-75
2020/12/06 01:54:00;;;;;;;10.27;1.73;;;;;;;;;;5114209;28;20035;-76
2020/12/06 01:57:05;;;;;;;13.85;1.85;;;;;;;;;;5114165;28;20051;-77
2020/12/06 02:00:09;;;;;;;10.77;1.80;;;;;;;;;;5114966;28;20502;-76
2020/12/06 02:03:14;;;;;;;14.00;1.50;;;;;;;;;;5114789;28;20047;-76
2020/12/06 02:06:18;;;;;;;16.50;2.55;;;;;;;;;;5113840;28;20121;-76
2020/12/06 02:09:23;;;;;;;23.92;2.70;;;;;;;;;;5114554;28;20153;-75
2020/12/06 02:12:27;;;;;;;15.35;2.85;;;;;;;;;;5114554;28;20597;-75
2020/12/06 02:15:34;;;;;;;11.15;1.95;;;;;;;;;;5114484;28;20043;-75
2020/12/06 02:18:38;;;;;;;11.15;2.05;;;;;;;;;;5114593;28;20040;-76
2020/12/06 02:21:42;;;;;;;14.50;2.00;;;;;;;;;;5114234;28;20027;-75
2020/12/06 02:24:47;;;;;;;12.40;1.95;;;;;;;;;;5114359;28;20393;-75
2020/12/06 02:27:51;;;;;;;18.73;2.30;;;;;;;;;;5114013;28;20300;-74
2020/12/06 02:30:55;;;;;;;15.57;2.28;;;;;;;;;;5113252;28;20035;-75
2020/12/06 02:33:59;;;;;;;12.02;1.90;;;;;;;;;;5113911;28;20036;-76
2020/12/06 02:37:04;;;;;;;16.60;2.28;;;;;;;;;;5114099;28;20043;-76
2020/12/06 02:40:08;;;;;;;14.10;1.88;;;;;;;;;;5114041;28;20364;-76
2020/12/06 02:43:12;;;;;;;14.15;2.25;;;;;;;;;;5114023;28;20265;-76
2020/12/06 02:46:16;;;;;;;13.60;2.35;;;;;;;;;;5113849;28;20054;-76
2020/12/06 02:49:21;;;;;;;14.18;1.75;;;;;;;;;;5113029;28;20047;-75
2020/12/06 02:52:25;;;;;;;12.18;2.10;;;;;;;;;;5113610;28;20039;-75
2020/12/06 02:55:29;;;;;;;12.00;1.98;;;;;;;;;;5113812;28;20043;-75
2020/12/06 02:58:34;;;;;;;13.18;2.58;;;;;;;;;;5113848;28;20040;-75
2020/12/06 03:01:38;;;;;;;22.02;2.88;;;;;;;;;;5114133;28;20379;-74
2020/12/06 03:04:42;;;;;;;11.35;2.10;;;;;;;;;;5112385;28;20035;-77
2020/12/06 03:07:47;;;;;;;19.05;2.00;;;;;;;;;;5113280;28;20048;-75
2020/12/06 03:10:51;;;;;;;11.82;2.20;;;;;;;;;;5113549;28;20379;-76
2020/12/06 03:13:56;;;;;;;12.30;1.83;;;;;;;;;;5113371;28;20036;-75
2020/12/06 03:17:00;;;;;;;12.95;2.03;;;;;;;;;;5113450;28;20508;-75
2020/12/06 03:20:04;;;;;;;18.50;2.42;;;;;;;;;;5113359;28;20387;-75
2020/12/06 03:23:09;;;;;;;12.52;2.25;;;;;;;;;;5113078;28;20494;-76
2020/12/06 03:26:14;;;;;;;13.20;2.03;;;;;;;;;;5112906;28;20031;-75
2020/12/06 03:29:18;;;;;;;19.75;2.28;;;;;;;;;;5112523;28;20510;-76
2020/12/06 03:32:23;;;;;;;12.13;2.05;;;;;;;;;;5112927;28;20044;-76
2020/12/06 03:35:27;;;;;;;15.07;2.97;;;;;;;;;;5112089;28;20047;-75
2020/12/06 03:38:32;;;;;;;13.07;2.00;;;;;;;;;;5112893;28;20027;-75
2020/12/06 03:41:37;;;;;;;14.27;1.98;;;;;;;;;;5112665;28;20054;-75
2020/12/06 03:44:41;;;;;;;12.07;2.08;;;;;;;;;;5112100;28;20035;-76
2020/12/06 03:47:45;;;;;;;10.73;1.90;;;;;;;;;;5112319;28;20048;-75
2020/12/06 03:50:50;;;;;;;10.57;1.90;;;;;;;;;;5112745;28;20028;-76
2020/12/06 03:53:54;;;;;;;18.73;2.15;;;;;;;;;;5111730;28;20035;-74
2020/12/06 03:56:59;;;;;;;15.85;3.05;;;;;;;;;;5112585;28;20032;-77
2020/12/06 04:00:03;;;;;;;13.18;2.20;;;;;;;;;;5112312;28;20047;-77
2020/12/06 04:03:09;;;;;;;14.70;2.40;;;;;;;;;;5112475;28;20028;-76
2020/12/06 04:06:13;;;;;;;12.13;2.25;;;;;;;;;;5112104;28;20129;-75
2020/12/06 04:09:17;;;;;;;12.52;1.73;;;;;;;;;;5112323;28;20046;-76
2020/12/06 04:12:22;;;;;;;16.15;1.98;;;;;;;;;;5112194;28;20035;-76
2020/12/06 04:15:26;;;;;;;17.75;2.38;;;;;;;;;;5112065;28;20035;-75
2020/12/06 04:18:30;;;;;;;11.00;2.25;;;;;;;;;;5111939;28;20046;-76
2020/12/06 04:21:35;;;;;;;13.35;2.25;;;;;;;;;;5112222;28;20421;-77
2020/12/06 04:24:39;;;;;;;17.35;2.53;;;;;;;;;;5112169;28;20039;-77
2020/12/06 04:27:43;;;;;;;16.27;2.10;;;;;;;;;;5112064;28;20513;-76
2020/12/06 04:30:48;;;;;;;15.63;2.47;;;;;;;;;;5112120;28;20481;-76
2020/12/06 04:33:52;;;;;;;14.73;3.22;;;;;;;;;;5111813;28;20063;-75
2020/12/06 04:36:56;;;;;;;15.73;3.20;;;;;;;;;;5110852;28;20284;-76
2020/12/06 04:40:01;;;;;;;19.60;2.25;;;;;;;;;;5111722;28;20040;-76
2020/12/06 04:43:07;;;;;;;14.73;2.40;;;;;;;;;;5111733;28;20032;-75
2020/12/06 04:46:11;;;;;;;20.50;2.38;;;;;;;;;;5111661;28;20039;-76
2020/12/06 04:49:19;;;;;;;15.55;2.20;;;;;;;;;;5111497;28;20050;-74
2020/12/06 04:52:26;;;;;;;16.75;2.15;;;;;;;;;;5111625;28;20532;-77
2020/12/06 04:55:31;;;;;;;13.18;2.08;;;;;;;;;;5110878;28;20062;-75
2020/12/06 04:58:38;;;;;;;13.43;1.73;;;;;;;;;;5111663;28;20047;-76
2020/12/06 05:01:43;;;;;;;14.30;2.20;;;;;;;;;;5098742;28;20047;-76
2020/12/06 05:04:48;;;;;;;16.50;2.97;;;;;;;;;;5111603;28;20503;-76
2020/12/06 05:07:53;;;;;;;17.70;2.50;;;;;;;;;;5111356;28;20415;-75
2020/12/06 05:10:59;;;;;;;10.80;2.08;;;;;;;;;;5111077;28;20028;-76
2020/12/06 05:14:06;;;;;;;15.73;2.10;;;;;;;;;;5111107;28;20399;-76
2020/12/06 05:17:10;;;;;;;15.75;1.85;;;;;;;;;;5111442;28;20032;-76
2020/12/06 05:20:15;;;;;;;17.40;2.40;;;;;;;;;;5111220;28;20036;-76
2020/12/06 05:23:19;;;;;;;13.15;2.17;;;;;;;;;;5111328;28;20040;-75
2020/12/06 05:26:23;;;;;;;9.60;2.30;;;;;;;;;;5111302;28;20040;-76
2020/12/06 05:29:28;;;;;;;16.15;1.88;;;;;;;;;;5115138;28;20035;-76
2020/12/06 05:32:33;;;;;;;13.40;2.15;;;;;;;;;;5114105;28;20043;-76
2020/12/06 05:35:41;;;;;;;17.17;2.45;;;;;;;;;;5115376;28;20034;-76
2020/12/06 05:38:45;;;;;;;15.35;2.50;;;;;;;;;;5115335;28;20066;-77
2020/12/06 05:41:50;;;;;;;17.77;2.50;;;;;;;;;;5115293;28;20031;-76
2020/12/06 05:44:57;;;;;;;13.13;3.17;;;;;;;;;;5115279;28;20434;-76
2020/12/06 05:48:01;;;;;;;19.60;2.55;;;;;;;;;;5114780;28;20048;-76
2020/12/06 05:51:07;;;;;;;15.45;2.10;;;;;;;;;;5115120;28;20036;-76
2020/12/06 05:54:11;;;;;;;17.67;2.40;;;;;;;;;;5115064;28;20039;-76
2020/12/06 05:57:16;;;;;;;13.98;2.30;;;;;;;;;;5115081;28;20051;-75
2020/12/06 06:00:20;;;;;;;14.00;1.83;;;;;;;;;;5115070;28;20369;-76
2020/12/06 06:03:28;;;;;;;10.30;2.60;;;;;;;;;;5114855;28;20044;-76
2020/12/06 06:06:42;;;;;;;15.02;2.33;;;;;;;;;;5113956;28;20391;-76
2020/12/06 06:09:48;;;;;;;14.35;2.13;;;;;;;;;;5114478;28;20036;-77
2020/12/06 06:12:55;;;;;;;12.27;1.95;;;;;;;;;;5114374;28;20387;-76
2020/12/06 06:15:59;;;;;;;12.00;2.22;;;;;;;;;;5113616;28;20471;-75
2020/12/06 06:19:05;;;;;;;16.38;2.33;;;;;;;;;;5114608;28;20036;-75
2020/12/06 06:22:09;;;;;;;13.23;2.30;;;;;;;;;;5114210;28;20036;-75
2020/12/06 06:25:13;;;;;;;16.23;2.90;;;;;;;;;;5114524;28;20416;-75
2020/12/06 06:28:18;;;;;;;13.32;1.80;;;;;;;;;;5114057;28;20043;-75
2020/12/06 06:31:23;;;;;;;18.08;2.50;;;;;;;;;;5114646;28;20474;-75
2020/12/06 06:34:30;;;;;;;19.52;2.70;;;;;;;;;;5114145;28;20510;-75
2020/12/06 06:37:35;;;;;;;13.35;2.38;;;;;;;;;;5114309;28;20046;-75
2020/12/06 06:40:40;;;;;;;17.00;2.40;;;;;;;;;;5113119;28;20052;-76
2020/12/06 06:43:44;;;;;;;17.77;2.53;;;;;;;;;;5113802;28;20495;-75
2020/12/06 06:46:51;;;;;;;8.27;1.60;;;;;;;;;;5113537;28;20542;-76
2020/12/06 06:49:56;;;;;;;11.98;1.65;;;;;;;;;;5114078;28;20047;-76
2020/12/06 06:53:02;;;;;;;10.35;1.50;;;;;;;;;;5113802;28;20035;-75
2020/12/06 06:56:09;;;;;;;12.18;1.90;;;;;;;;;;5113832;28;20043;-75
2020/12/06 06:59:13;;;;;;;12.98;1.35;;;;;;;;;;5113044;28;20050;-76
2020/12/06 07:02:26;;;;;;;3.13;0.63;;;;;;;;;;5113359;28;20494;-76
2020/12/06 07:05:38;;;;;;;3.20;0.70;;;;;;;;;;5113454;28;20036;-75
2020/12/06 07:08:42;;;;;;;1.33;0.50;;;;;;;;;;5113375;28;20044;-76
2020/12/06 07:11:47;;;;;;;2.55;0.47;;;;;;;;;;5113494;28;20031;-75
2020/12/06 07:14:52;;;;;;;6.90;1.73;;;;;;;;;;5100738;28;20294;-75
2020/12/06 07:17:57;;;;;;;3.70;0.90;;;;;;;;;;5113439;28;20040;-76
2020/12/06 07:21:01;;;;;;;4.45;1.10;;;;;;;;;;5113231;28;20027;-76
2020/12/06 07:24:05;;;;;;;2.10;0.65;;;;;;;;;;5113351;28;20035;-76
2020/12/06 07:27:10;;;;;;;5.50;0.80;;;;;;;;;;5112314;28;20048;-76
2020/12/06 07:30:16;;;;;;;4.20;0.68;;;;;;;;;;5113505;28;20039;-77
2020/12/06 07:33:21;;;;;;;1.48;0.65;;;;;;;;;;5112818;28;20170;-76
2020/12/06 07:36:25;;;;;;;4.40;0.80;;;;;;;;;;5111944;28;20036;-75
2020/12/06 07:39:29;;;;;;;3.65;0.80;;;;;;;;;;5112504;28;20039;-75
2020/12/06 07:42:33;;;;;;;3.28;0.90;;;;;;;;;;5112676;28;20387;-76
2020/12/06 07:45:39;;;;;;;5.13;1.13;;;;;;;;;;5112520;28;20044;-75
2020/12/06 07:48:44;;;;;;;8.07;1.35;;;;;;;;;;5112291;28;20523;-75
2020/12/06 07:51:49;;;;;;;5.47;1.50;;;;;;;;;;5112315;28;20036;-76
2020/12/06 07:54:57;;;;;;;10.38;1.50;;;;;;;;;;5112735;28;20495;-76
2020/12/06 07:58:03;;;;;;;4.57;1.70;;;;;;;;;;5112475;28;20038;-76
2020/12/06 08:01:07;;;;;;;6.93;2.03;;;;;;;;;;5112302;28;20044;-76
2020/12/06 08:04:18;;;;;;;7.07;2.33;;;;;;;;;;5112221;28;20371;-75
2020/12/06 08:07:24;;;;;;;10.30;1.85;;;;;;;;;;5112297;28;20047;-75
2020/12/06 08:10:29;;;;;;;5.25;1.23;;;;;;;;;;5112011;28;20041;-76
2020/12/06 08:13:33;;;;;;;7.75;1.52;;;;;;;;;;5112008;28;20372;-75
2020/12/06 08:16:37;;;;;;;3.53;1.15;;;;;;;;;;5112007;28;20032;-77
2020/12/06 08:19:44;;;;;;;1.13;0.47;;;;;;;;;;5111158;28;20043;-75
2020/12/06 08:22:49;;;;;;;1.50;0.52;;;;;;;;;;5111960;28;20028;-76
2020/12/06 08:25:53;;;;;;;6.05;1.20;;;;;;;;;;5111119;28;20035;-76
2020/12/06 08:28:57;;;;;;;2.92;1.00;;;;;;;;;;5111689;28;20055;-76
2020/12/06 08:32:05;;;;;;;2.88;1.25;;;;;;;;;;5111751;28;20036;-76
2020/12/06 08:35:09;;;;;;;0.95;0.57;;;;;;;;;;5112040;28;20039;-76
2020/12/06 08:38:18;;;;;;;1.70;0.50;;;;;;;;;;5112043;28;20031;-76
2020/12/06 08:41:25;;;;;;;2.75;0.73;;;;;;;;;;5111887;28;20039;-76
2020/12/06 08:44:30;;;;;;;1.90;1.10;;;;;;;;;;5111669;28;20040;-77
2020/12/06 08:47:42;;;;;;;3.42;1.27;;;;;;;;;;5111381;28;20052;-77
2020/12/06 08:50:46;;;;;;;;;;;;;;;;;;5112189;28;20036;-76
2020/12/06 08:53:50;;;;;;;3.47;1.30;;;;;;;;;;5111489;28;19915;-75
2020/12/06 08:57:05;;;;;;;2.97;1.60;;;;;;;;;;5111783;28;20040;-69
2020/12/06 09:00:09;;;;;;;5.93;2.17;;;;;;;;;;5111457;28;20035;-69
2020/12/06 09:03:14;;;;;;;7.45;2.35;;;;;;;;;;5111266;28;20360;-71
2020/12/06 09:06:18;;;;;;;5.28;2.05;;;;;;;;;;5111415;28;20031;-69
2020/12/06 09:09:22;;;;;;;4.72;1.90;;;;;;;;;;5110705;28;20499;-68
2020/12/06 09:12:29;;;;;;;6.43;1.95;;;;;;;;;;5111464;28;20388;-69
2020/12/06 09:15:33;;;;;;;27.17;17.55;;;;;;;;;;5111409;28;20527;-71
2020/12/06 09:18:39;;;;;;;8.43;3.22;;;;;;;;;;5111562;28;20042;-72
2020/12/06 09:21:43;;;;;;;7.05;4.32;;;;;;;;;;5111262;28;20044;-72
2020/12/06 09:24:48;;;;;;;11.70;5.57;;;;;;;;;;5111504;28;20036;-71
2020/12/06 09:27:55;;;;;;;7.90;4.57;;;;;;;;;;5111206;28;20384;-68
2020/12/06 09:31:00;;;;;;;10.75;5.78;;;;;;;;;;5111226;28;20036;-68
2020/12/06 09:34:04;;;;;;;5.35;2.40;;;;;;;;;;5111506;28;20502;-67
2020/12/06 09:37:08;;;;;;;6.68;2.50;;;;;;;;;;5110902;28;20376;-68
2020/12/06 09:40:13;;;;;;;7.32;3.90;;;;;;;;;;5111090;28;20471;-67
2020/12/06 09:43:17;;;;;;;6.90;2.90;;;;;;;;;;5110816;28;20467;-68
2020/12/06 09:46:21;;;;;;;5.05;2.90;;;;;;;;;;5111203;28;20043;-68
2020/12/06 09:49:26;;;;;;;5.57;4.00;;;;;;;;;;5110962;28;20044;-68
2020/12/06 09:52:30;;;;;;;8.57;6.10;;;;;;;;;;5111180;28;20031;-68
2020/12/06 09:55:35;;;;;;;7.50;5.45;;;;;;;;;;5111063;28;20043;-68
2020/12/06 09:58:39;;;;;;;8.23;3.97;;;;;;;;;;5110621;28;20035;-67
2020/12/06 10:01:43;;;;;;;8.65;4.10;;;;;;;;;;5111284;28;20052;-67
2020/12/06 10:04:49;;;;;;;10.10;5.65;;;;;;;;;;5111004;28;20040;-67
2020/12/06 10:07:53;;;;;;;7.43;4.40;;;;;;;;;;5110724;28;20056;-67
2020/12/06 10:10:57;;;;;;;10.02;4.60;;;;;;;;;;5111196;28;20036;-68
2020/12/06 10:14:02;;;;;;;8.18;5.07;;;;;;;;;;5111092;28;20054;-68
2020/12/06 10:17:06;;;;;;;10.13;6.72;;;;;;;;;;5114590;28;20039;-68
2020/12/06 10:20:11;;;;;;;7.85;5.45;;;;;;;;;;5114659;28;20043;-68
2020/12/06 10:23:15;;;;;;;6.63;4.13;;;;;;;;;;5114295;28;20036;-68
2020/12/06 10:26:20;;;;;;;6.32;3.83;;;;;;;;;;5114494;28;20035;-67
2020/12/06 10:29:25;;;;;;;4.38;3.03;;;;;;;;;;5114469;28;20044;-68
2020/12/06 10:32:29;;;;;;;3.65;3.05;;;;;;;;;;5114070;28;20036;-68
2020/12/06 10:35:33;;;;;;;4.78;3.00;;;;;;;;;;5114342;28;20301;-68
2020/12/06 10:38:38;;;;;;;6.50;4.40;;;;;;;;;;5114023;28;20043;-68
2020/12/06 10:41:42;;;;;;;4.60;2.08;;;;;;;;;;5114045;28;20043;-68
2020/12/06 10:44:46;;;;;;;5.18;2.83;;;;;;;;;;5114147;28;20040;-68
2020/12/06 10:47:50;;;;;;;2.22;1.40;;;;;;;;;;5112912;28;20055;-68
2020/12/06 10:50:55;;;;;;;4.05;1.23;;;;;;;;;;5113958;28;20396;-67
2020/12/06 10:53:59;;;;;;;4.45;1.13;;;;;;;;;;5113681;28;20035;-68
2020/12/06 10:57:05;;;;;;;5.25;1.38;;;;;;;;;;5113737;28;20265;-68
2020/12/06 11:00:10;;;;;;;4.72;1.73;;;;;;;;;;5113499;28;20039;-68
2020/12/06 11:03:14;;;;;;;6.13;2.17;;;;;;;;;;5113176;28;20036;-68
2020/12/06 11:06:19;;;;;;;6.60;2.70;;;;;;;;;;5113650;28;20040;-67
2020/12/06 11:09:24;;;;;;;6.43;2.83;;;;;;;;;;5113418;28;20055;-67
2020/12/06 11:12:28;;;;;;;10.57;3.33;;;;;;;;;;5113481;28;20031;-68
2020/12/06 11:15:32;;;;;;;8.00;2.97;;;;;;;;;;5113268;28;20040;-68
2020/12/06 11:18:37;;;;;;;6.43;2.72;;;;;;;;;;5112191;28;20032;-68
2020/12/06 11:21:42;;;;;;;10.30;4.03;;;;;;;;;;5113299;28;20040;-67
2020/12/06 11:24:46;;;;;;;11.80;5.07;;;;;;;;;;5112920;28;20031;-67
2020/12/06 11:27:50;;;;;;;16.65;4.78;;;;;;;;;;5113157;28;20056;-67
2020/12/06 11:30:54;;;;;;;11.15;4.28;;;;;;;;;;5113048;28;20040;-67
2020/12/06 11:33:59;;;;;;;13.00;4.45;;;;;;;;;;5113070;28;20042;-67
2020/12/06 11:37:03;;;;;;;23.60;10.82;;;;;;;;;;5112889;28;20043;-67
2020/12/06 11:40:08;;;;;;;15.18;7.80;;;;;;;;;;5112800;28;20054;-67
2020/12/06 11:43:12;;;;;;;21.10;7.25;;;;;;;;;;5112632;28;20497;-67
2020/12/06 11:46:16;;;;;;;10.18;4.10;;;;;;;;;;5113055;28;20391;-67
2020/12/06 11:49:21;;;;;;;9.48;3.15;;;;;;;;;;5112331;28;20054;-67
2020/12/06 11:52:25;;;;;;;10.32;4.70;;;;;;;;;;5112473;28;20482;-68
2020/12/06 11:55:30;;;;;;;12.13;5.60;;;;;;;;;;5112789;28;20419;-68
2020/12/06 11:58:34;;;;;;;18.08;8.98;;;;;;;;;;5112476;28;20046;-68
2020/12/06 12:01:38;;;;;;;21.95;11.50;;;;;;;;;;5112325;28;20043;-68
2020/12/06 12:04:43;;;;;;;16.40;6.50;;;;;;;;;;5112292;28;20079;-68
2020/12/06 12:07:47;;;;;;;13.55;5.68;;;;;;;;;;5112397;28;20122;-68
2020/12/06 12:10:52;;;;;;;13.73;4.40;;;;;;;;;;5112258;28;20046;-67
2020/12/06 12:13:57;;;;;;;11.27;3.83;;;;;;;;;;5112321;28;20043;-67
2020/12/06 12:17:01;;;;;;;14.52;7.07;;;;;;;;;;5112090;28;20043;-68
2020/12/06 12:20:07;;;;;;;11.07;5.18;;;;;;;;;;5112106;28;20050;-69
2020/12/06 12:23:12;;;;;;;10.35;4.97;;;;;;;;;;5112017;28;20040;-69
2020/12/06 12:26:16;;;;;;;14.10;5.72;;;;;;;;;;5112242;28;20044;-67
2020/12/06 12:29:20;;;;;;;16.50;7.53;;;;;;;;;;5111899;28;20047;-69
2020/12/06 12:32:25;;;;;;;26.60;10.18;;;;;;;;;;5110844;28;20035;-70
2020/12/06 12:35:29;;;;;;;24.80;14.10;;;;;;;;;;5111706;28;20043;-67
2020/12/06 12:38:34;;;;;;;39.72;22.98;;;;;;;;;;5111244;28;20407;-67
2020/12/06 12:41:38;;;;;;;32.53;16.42;;;;;;;;;;5111580;28;20038;-67
2020/12/06 12:44:43;;;;;;;25.65;14.73;;;;;;;;;;5111706;28;20067;-68
2020/12/06 12:47:47;;;;;;;27.05;11.18;;;;;;;;;;5111103;28;20046;-68
2020/12/06 12:50:52;;;;;;;17.90;8.65;;;;;;;;;;5111680;28;20046;-68
2020/12/06 12:53:57;;;;;;;24.40;12.30;;;;;;;;;;5111632;28;20103;-68
2020/12/06 12:57:04;;;;;;;19.05;9.40;;;;;;;;;;5111485;28;20046;-68
2020/12/06 13:00:08;;;;;;;20.10;8.18;;;;;;;;;;5111722;28;20395;-68
2020/12/06 13:03:13;;;;;;;13.20;6.22;;;;;;;;;;5111580;28;20046;-68
2020/12/06 13:06:18;;;;;;;16.40;7.82;;;;;;;;;;5111333;28;20039;-68
2020/12/06 13:09:21;;;;;;;18.67;7.03;;;;;;;;;;5111469;28;20040;-68
2020/12/06 13:12:26;;;;;;;22.77;10.50;;;;;;;;;;5111528;28;20032;-68
2020/12/06 13:15:30;;;;;;;12.23;6.05;;;;;;;;;;5111493;28;20059;-68
2020/12/06 13:18:35;;;;;;;9.52;5.38;;;;;;;;;;5111298;28;20394;-68
2020/12/06 13:21:39;;;;;;;11.43;5.07;;;;;;;;;;5110827;28;20044;-74
2020/12/06 13:24:43;;;;;;;8.55;5.28;;;;;;;;;;5110399;28;20039;-75
2020/12/06 13:27:48;;;;;;;15.35;7.30;;;;;;;;;;5111286;28;20047;-76
2020/12/06 13:30:52;;;;;;;14.20;8.32;;;;;;;;;;5111407;28;20461;-75
2020/12/06 13:33:56;;;;;;;15.98;9.57;;;;;;;;;;5111419;28;20402;-76
2020/12/06 13:37:01;;;;;;;15.20;10.48;;;;;;;;;;5110696;28;20028;-76
2020/12/06 13:40:05;;;;;;;21.52;12.75;;;;;;;;;;5111034;28;20039;-76
2020/12/06 13:43:10;;;;;;;19.75;11.93;;;;;;;;;;5111297;28;20051;-76
2020/12/06 13:46:14;;;;;;;14.43;5.95;;;;;;;;;;5111287;28;20046;-76
2020/12/06 13:49:19;;;;;;;26.70;13.50;;;;;;;;;;5112955;28;20039;-75
2020/12/06 13:52:23;;;;;;;13.73;6.45;;;;;;;;;;5114832;28;20042;-76
2020/12/06 13:55:27;;;;;;;10.45;5.03;;;;;;;;;;5115133;28;20043;-76
2020/12/06 13:58:31;;;;;;;13.75;4.20;;;;;;;;;;5115090;28;20044;-76
2020/12/06 14:01:36;;;;;;;14.65;6.00;;;;;;;;;;5114921;28;20047;-76
2020/12/06 14:04:40;;;;;;;17.00;5.80;;;;;;;;;;5114744;28;20399;-76
2020/12/06 14:07:46;;;;;;;13.32;7.05;;;;;;;;;;5113957;28;20056;-75
2020/12/06 14:10:50;;;;;;;15.85;4.95;;;;;;;;;;5114883;28;20039;-77
2020/12/06 14:13:54;;;;;;;20.35;9.77;;;;;;;;;;5114524;28;20039;-74
2020/12/06 14:17:00;;;;;;;12.82;2.53;;;;;;;;;;5114727;28;20115;-75
2020/12/06 14:20:04;;;;;;;10.20;2.85;;;;;;;;;;5113757;28;20050;-75
2020/12/06 14:23:09;;;;;;;16.65;5.20;;;;;;;;;;5114860;28;20039;-75
2020/12/06 14:26:14;;;;;;;14.95;4.45;;;;;;;;;;5114567;28;20044;-75
2020/12/06 14:29:18;;;;;;;7.03;2.30;;;;;;;;;;5114117;28;20044;-75
2020/12/06 14:32:23;;;;;;;9.95;2.40;;;;;;;;;;5114070;28;20262;-75
2020/12/06 14:35:27;;;;;;;16.38;2.90;;;;;;;;;;5114131;28;20043;-76
2020/12/06 14:38:31;;;;;;;15.20;4.65;;;;;;;;;;5114269;28;20058;-76
2020/12/06 14:41:35;;;;;;;20.17;8.68;;;;;;;;;;5114056;28;20055;-75
2020/12/06 14:44:40;;;;;;;14.02;6.20;;;;;;;;;;5114239;28;20035;-75
2020/12/06 14:47:44;;;;;;;12.38;3.88;;;;;;;;;;5113713;28;20059;-75
2020/12/06 14:50:48;;;;;;;10.23;2.67;;;;;;;;;;5114053;28;20040;-76
2020/12/06 14:53:53;;;;;;;12.32;3.50;;;;;;;;;;5114117;28;20487;-75
2020/12/06 14:56:57;;;;;;;15.23;3.00;;;;;;;;;;5113931;28;20394;-76
2020/12/06 15:00:01;;;;;;;14.60;3.10;;;;;;;;;;5113248;28;20043;-76
2020/12/06 15:03:06;;;;;;;8.13;2.85;;;;;;;;;;5113507;28;20027;-77
2020/12/06 15:06:10;;;;;;;13.35;3.33;;;;;;;;;;5112927;28;20036;-77
2020/12/06 15:09:14;;;;;;;13.48;2.88;;;;;;;;;;5113646;28;20047;-76
2020/12/06 15:12:19;;;;;;;11.43;2.50;;;;;;;;;;5113539;28;20042;-75
2020/12/06 15:15:23;;;;;;;6.00;2.17;;;;;;;;;;5113583;28;20036;-77
2020/12/06 15:18:27;;;;;;;8.88;1.90;;;;;;;;;;5112749;28;20031;-77
2020/12/06 15:21:32;;;;;;;8.88;2.33;;;;;;;;;;5112547;28;20036;-75
2020/12/06 15:24:36;;;;;;;7.40;2.50;;;;;;;;;;5113125;28;20031;-77
2020/12/06 15:27:40;;;;;;;11.10;2.67;;;;;;;;;;5113496;28;20355;-77
2020/12/06 15:30:44;;;;;;;10.50;2.40;;;;;;;;;;5113311;28;20503;-75
2020/12/06 15:33:49;;;;;;;7.50;2.88;;;;;;;;;;5112348;28;20473;-77
2020/12/06 15:36:53;;;;;;;9.43;3.30;;;;;;;;;;5113060;28;20040;-76
2020/12/06 15:39:57;;;;;;;16.13;3.20;;;;;;;;;;5112969;28;20040;-75
2020/12/06 15:43:01;;;;;;;8.52;2.00;;;;;;;;;;5112038;28;20048;-76
2020/12/06 15:46:07;;;;;;;6.50;2.28;;;;;;;;;;5112313;28;20171;-76
2020/12/06 15:49:12;;;;;;;3.20;1.35;;;;;;;;;;5112640;28;20047;-78
2020/12/06 15:52:18;;;;;;;7.88;1.92;;;;;;;;;;5112671;28;20481;-76
2020/12/06 15:55:24;;;;;;;5.97;1.85;;;;;;;;;;5112414;28;20107;-76
2020/12/06 15:58:28;;;;;;;8.20;1.55;;;;;;;;;;5112413;28;20032;-76
2020/12/06 16:01:33;;;;;;;8.95;2.00;;;;;;;;;;5099779;28;20043;-76
2020/12/06 16:04:37;;;;;;;13.13;2.50;;;;;;;;;;5112453;28;20031;-77
2020/12/06 16:07:41;;;;;;;9.25;2.20;;;;;;;;;;5112474;28;20502;-76
2020/12/06 16:10:46;;;;;;;10.63;3.22;;;;;;;;;;5112438;28;20040;-76
2020/12/06 16:13:50;;;;;;;10.35;2.53;;;;;;;;;;5112134;28;20039;-75
2020/12/06 16:16:55;;;;;;;8.30;2.55;;;;;;;;;;5111441;28;20050;-75
2020/12/06 16:19:59;;;;;;;15.30;2.85;;;;;;;;;;5112107;28;20379;-76
2020/12/06 16:23:03;;;;;;;17.13;6.38;;;;;;;;;;5111387;28;20031;-75
2020/12/06 16:26:09;;;;;;;12.45;3.72;;;;;;;;;;5112045;28;20043;-75
2020/12/06 16:29:15;;;;;;;11.98;3.47;;;;;;;;;;5111876;28;20392;-75
2020/12/06 16:32:19;;;;;;;10.80;3.13;;;;;;;;;;5112013;28;20031;-75
2020/12/06 16:35:24;;;;;;;11.45;4.03;;;;;;;;;;5112033;28;20054;-75
2020/12/06 16:38:28;;;;;;;14.50;3.53;;;;;;;;;;5099138;28;20494;-75
2020/12/06 16:41:33;;;;;;;12.38;4.65;;;;;;;;;;5111931;28;20043;-75
2020/12/06 16:44:37;;;;;;;16.83;4.25;;;;;;;;;;5111743;28;20043;-74
2020/12/06 16:47:41;;;;;;;16.35;4.60;;;;;;;;;;5098808;28;20051;-75
2020/12/06 16:50:46;;;;;;;15.45;6.00;;;;;;;;;;5111511;28;20402;-76
2020/12/06 16:53:51;;;;;;;18.10;7.50;;;;;;;;;;5111538;28;20039;-76
2020/12/06 16:57:02;;;;;;;13.55;6.65;;;;;;;;;;5111584;28;20400;-76
2020/12/06 17:00:07;;;;;;;16.45;5.63;;;;;;;;;;5111545;28;20043;-76
2020/12/06 17:03:11;;;;;;;15.63;6.15;;;;;;;;;;5111701;28;20400;-76
2020/12/06 17:06:16;;;;;;;13.93;5.50;;;;;;;;;;5111380;28;20032;-76
2020/12/06 17:09:20;;;;;;;11.63;5.82;;;;;;;;;;5111262;28;20047;-76
2020/12/06 17:12:24;;;;;;;17.88;6.60;;;;;;;;;;5111302;28;20046;-75
2020/12/06 17:15:28;;;;;;;13.88;7.78;;;;;;;;;;5111401;28;20042;-76
2020/12/06 17:18:33;;;;;;;19.95;10.77;;;;;;;;;;5111216;28;20044;-76
2020/12/06 17:21:38;;;;;;;18.88;10.10;;;;;;;;;;5111308;28;20038;-75
2020/12/06 17:24:42;;;;;;;23.08;8.98;;;;;;;;;;5113078;28;20043;-76
2020/12/06 17:27:47;;;;;;;23.38;8.55;;;;;;;;;;5115319;28;20035;-76
2020/12/06 17:30:51;;;;;;;9.35;5.93;;;;;;;;;;5115401;28;20056;-76
2020/12/06 17:33:55;;;;;;;16.48;5.32;;;;;;;;;;5115396;28;20035;-76
2020/12/06 17:36:59;;;;;;;14.77;3.80;;;;;;;;;;5115205;28;20032;-75
2020/12/06 17:40:04;;;;;;;14.48;5.10;;;;;;;;;;5115290;28;20038;-76
2020/12/06 17:43:08;;;;;;;10.73;5.65;;;;;;;;;;5115451;28;20036;-75
2020/12/06 17:46:13;;;;;;;18.65;7.28;;;;;;;;;;5114830;28;20033;-76
2020/12/06 17:49:17;;;;;;;16.30;9.02;;;;;;;;;;5114840;28;20502;-75
2020/12/06 17:52:21;;;;;;;10.40;5.75;;;;;;;;;;5113927;28;20035;-75
2020/12/06 17:55:27;;;;;;;14.35;5.22;;;;;;;;;;5114930;28;20061;-75
2020/12/06 17:58:32;;;;;;;16.58;5.25;;;;;;;;;;5115049;28;20039;-75
2020/12/06 18:01:36;;;;;;;14.20;4.72;;;;;;;;;;5114869;28;20415;-76
2020/12/06 18:04:41;;;;;;;7.30;4.28;;;;;;;;;;5114900;28;20035;-77
2020/12/06 18:07:45;;;;;;;10.48;3.42;;;;;;;;;;5114123;28;20040;-76
2020/12/06 18:10:50;;;;;;;8.20;2.90;;;;;;;;;;5114837;28;20048;-76
2020/12/06 18:13:54;;;;;;;7.43;3.10;;;;;;;;;;5114068;28;20055;-76
2020/12/06 18:17:01;;;;;;;11.35;4.50;;;;;;;;;;5114632;28;20035;-75
2020/12/06 18:20:06;;;;;;;8.13;4.43;;;;;;;;;;5114707;28;20495;-75